sensor_id;sensor_type;location;lat;lon;timestamp;P1;durP1;ratioP1;P2;durP2;ratioP2
55819;SDS011;41747;45.002;39.032;2022-08-20T00:01:46;15.83;;;7.00;;
55819;SDS011;41747;45.002;39.032;2022-08-20T00:04:15;15.93;;;6.75;;
55819;SDS011;41747;45.002;39.032;2022-08-20T00:06:45;14.60;;;6.00;;
55819;SDS011;41747;45.002;39.032;2022-08-20T00:09:14;16.25;;;6.20;;
55819;SDS011;41747;45.002;39.032;2022-08-20T00:11:44;12.80;;;5.85;;
55819;SDS011;41747;45.002;39.032;2022-08-20T00:14:13;15.15;;;6.78;;
55819;SDS011;41747;45.002;39.032;2022-08-20T00:16:43;13.10;;;6.47;;
55819;SDS011;41747;45.002;39.032;2022-08-20T00:19:12;12.88;;;6.58;;
55819;SDS011;41747;45.002;39.032;2022-08-20T00:21:41;16.27;;;6.47;;
55819;SDS011;41747;45.002;39.032;2022-08-20T00:24:11;11.10;;;6.05;;
55819;SDS011;41747;45.002;39.032;2022-08-20T00:26:40;13.55;;;6.60;;
55819;SDS011;41747;45.002;39.032;2022-08-20T00:29:09;17.45;;;7.40;;
55819;SDS011;41747;45.002;39.032;2022-08-20T00:31:39;13.62;;;6.90;;
55819;SDS011;41747;45.002;39.032;2022-08-20T00:34:08;16.60;;;6.42;;
55819;SDS011;41747;45.002;39.032;2022-08-20T00:36:38;14.15;;;7.22;;
55819;SDS011;41747;45.002;39.032;2022-08-20T00:39:07;15.20;;;6.97;;
55819;SDS011;41747;45.002;39.032;2022-08-20T00:41:37;12.70;;;6.50;;
55819;SDS011;41747;45.002;39.032;2022-08-20T00:44:08;16.42;;;7.80;;
55819;SDS011;41747;45.002;39.032;2022-08-20T00:46:42;16.70;;;6.60;;
55819;SDS011;41747;45.002;39.032;2022-08-20T00:49:17;12.60;;;6.45;;
55819;SDS011;41747;45.002;39.032;2022-08-20T00:54:40;15.20;;;6.40;;
55819;SDS011;41747;45.002;39.032;2022-08-20T00:57:09;17.10;;;6.80;;
55819;SDS011;41747;45.002;39.032;2022-08-20T00:59:49;13.53;;;6.60;;
55819;SDS011;41747;45.002;39.032;2022-08-20T01:02:21;13.60;;;6.28;;
55819;SDS011;41747;45.002;39.032;2022-08-20T01:04:54;13.28;;;6.62;;
55819;SDS011;41747;45.002;39.032;2022-08-20T01:07:24;15.83;;;7.90;;
55819;SDS011;41747;45.002;39.032;2022-08-20T01:09:56;14.80;;;7.30;;
55819;SDS011;41747;45.002;39.032;2022-08-20T01:12:28;13.50;;;6.78;;
55819;SDS011;41747;45.002;39.032;2022-08-20T01:14:59;15.75;;;6.70;;
55819;SDS011;41747;45.002;39.032;2022-08-20T01:17:30;11.73;;;6.03;;
55819;SDS011;41747;45.002;39.032;2022-08-20T01:20:06;16.45;;;7.30;;
55819;SDS011;41747;45.002;39.032;2022-08-20T01:28:00;16.52;;;8.38;;
55819;SDS011;41747;45.002;39.032;2022-08-20T01:30:30;14.58;;;8.48;;
55819;SDS011;41747;45.002;39.032;2022-08-20T01:33:00;14.85;;;8.13;;
55819;SDS011;41747;45.002;39.032;2022-08-20T01:35:31;23.98;;;9.03;;
55819;SDS011;41747;45.002;39.032;2022-08-20T01:38:05;22.13;;;8.80;;
55819;SDS011;41747;45.002;39.032;2022-08-20T01:40:56;22.37;;;8.98;;
55819;SDS011;41747;45.002;39.032;2022-08-20T01:43:23;16.62;;;8.50;;
55819;SDS011;41747;45.002;39.032;2022-08-20T01:45:54;24.30;;;9.53;;
55819;SDS011;41747;45.002;39.032;2022-08-20T01:48:23;17.73;;;8.70;;
55819;SDS011;41747;45.002;39.032;2022-08-20T01:50:57;15.53;;;9.03;;
55819;SDS011;41747;45.002;39.032;2022-08-20T01:53:37;16.52;;;9.23;;
55819;SDS011;41747;45.002;39.032;2022-08-20T01:56:09;16.52;;;8.90;;
55819;SDS011;41747;45.002;39.032;2022-08-20T01:58:37;15.88;;;9.40;;
55819;SDS011;41747;45.002;39.032;2022-08-20T02:01:16;16.35;;;10.00;;
55819;SDS011;41747;45.002;39.032;2022-08-20T02:03:49;17.15;;;10.25;;
55819;SDS011;41747;45.002;39.032;2022-08-20T02:06:21;17.45;;;9.48;;
55819;SDS011;41747;45.002;39.032;2022-08-20T02:08:53;20.17;;;10.20;;
55819;SDS011;41747;45.002;39.032;2022-08-20T02:11:25;22.95;;;10.30;;
55819;SDS011;41747;45.002;39.032;2022-08-20T02:13:56;20.92;;;10.10;;
55819;SDS011;41747;45.002;39.032;2022-08-20T02:16:31;19.07;;;10.50;;
55819;SDS011;41747;45.002;39.032;2022-08-20T02:19:04;23.42;;;9.78;;
55819;SDS011;41747;45.002;39.032;2022-08-20T02:21:30;19.27;;;9.78;;
55819;SDS011;41747;45.002;39.032;2022-08-20T02:24:00;18.05;;;10.50;;
55819;SDS011;41747;45.002;39.032;2022-08-20T02:26:30;23.52;;;10.80;;
55819;SDS011;41747;45.002;39.032;2022-08-20T02:29:05;17.07;;;10.00;;
55819;SDS011;41747;45.002;39.032;2022-08-20T02:31:37;18.87;;;10.28;;
55819;SDS011;41747;45.002;39.032;2022-08-20T02:34:07;23.67;;;11.00;;
55819;SDS011;41747;45.002;39.032;2022-08-20T02:36:38;19.80;;;10.70;;
55819;SDS011;41747;45.002;39.032;2022-08-20T02:39:10;18.37;;;11.03;;
55819;SDS011;41747;45.002;39.032;2022-08-20T02:41:40;22.60;;;10.80;;
55819;SDS011;41747;45.002;39.032;2022-08-20T02:44:10;21.42;;;11.38;;
55819;SDS011;41747;45.002;39.032;2022-08-20T02:46:39;20.80;;;11.40;;
55819;SDS011;41747;45.002;39.032;2022-08-20T02:49:09;20.82;;;10.85;;
55819;SDS011;41747;45.002;39.032;2022-08-20T02:51:38;24.50;;;12.07;;
55819;SDS011;41747;45.002;39.032;2022-08-20T02:54:08;20.48;;;11.65;;
55819;SDS011;41747;45.002;39.032;2022-08-20T02:56:37;21.33;;;11.57;;
55819;SDS011;41747;45.002;39.032;2022-08-20T02:59:07;17.80;;;11.63;;
55819;SDS011;41747;45.002;39.032;2022-08-20T03:01:37;20.12;;;11.55;;
55819;SDS011;41747;45.002;39.032;2022-08-20T03:04:06;17.37;;;11.48;;
55819;SDS011;41747;45.002;39.032;2022-08-20T03:06:36;24.18;;;12.78;;
55819;SDS011;41747;45.002;39.032;2022-08-20T03:09:05;20.02;;;11.70;;
55819;SDS011;41747;45.002;39.032;2022-08-20T03:11:35;21.37;;;11.68;;
55819;SDS011;41747;45.002;39.032;2022-08-20T03:14:06;20.10;;;12.03;;
55819;SDS011;41747;45.002;39.032;2022-08-20T03:16:35;21.20;;;11.00;;
55819;SDS011;41747;45.002;39.032;2022-08-20T03:19:05;24.47;;;11.43;;
55819;SDS011;41747;45.002;39.032;2022-08-20T03:21:34;21.23;;;11.05;;
55819;SDS011;41747;45.002;39.032;2022-08-20T03:24:04;21.48;;;11.65;;
55819;SDS011;41747;45.002;39.032;2022-08-20T03:26:35;18.67;;;11.53;;
55819;SDS011;41747;45.002;39.032;2022-08-20T03:29:04;20.45;;;11.08;;
55819;SDS011;41747;45.002;39.032;2022-08-20T03:31:34;21.85;;;11.97;;
55819;SDS011;41747;45.002;39.032;2022-08-20T03:34:03;25.62;;;12.25;;
55819;SDS011;41747;45.002;39.032;2022-08-20T03:36:33;31.73;;;13.13;;
55819;SDS011;41747;45.002;39.032;2022-08-20T03:39:04;25.52;;;13.60;;
55819;SDS011;41747;45.002;39.032;2022-08-20T03:41:35;24.77;;;12.70;;
55819;SDS011;41747;45.002;39.032;2022-08-20T03:44:05;20.90;;;10.98;;
55819;SDS011;41747;45.002;39.032;2022-08-20T03:46:36;17.95;;;10.60;;
55819;SDS011;41747;45.002;39.032;2022-08-20T03:49:05;19.90;;;10.95;;
55819;SDS011;41747;45.002;39.032;2022-08-20T03:51:35;25.82;;;10.85;;
55819;SDS011;41747;45.002;39.032;2022-08-20T03:54:04;20.23;;;10.78;;
55819;SDS011;41747;45.002;39.032;2022-08-20T03:56:33;20.40;;;11.00;;
55819;SDS011;41747;45.002;39.032;2022-08-20T03:59:03;22.45;;;11.20;;
55819;SDS011;41747;45.002;39.032;2022-08-20T04:01:32;18.27;;;10.18;;
55819;SDS011;41747;45.002;39.032;2022-08-20T04:04:02;21.23;;;10.70;;
55819;SDS011;41747;45.002;39.032;2022-08-20T04:06:31;22.80;;;9.23;;
55819;SDS011;41747;45.002;39.032;2022-08-20T04:09:01;19.27;;;8.55;;
55819;SDS011;41747;45.002;39.032;2022-08-20T04:11:31;22.22;;;8.38;;
55819;SDS011;41747;45.002;39.032;2022-08-20T04:14:00;24.02;;;7.92;;
55819;SDS011;41747;45.002;39.032;2022-08-20T04:16:30;21.10;;;7.00;;
55819;SDS011;41747;45.002;39.032;2022-08-20T04:18:59;19.77;;;7.90;;
55819;SDS011;41747;45.002;39.032;2022-08-20T04:21:30;27.02;;;8.15;;
55819;SDS011;41747;45.002;39.032;2022-08-20T04:24:01;16.85;;;6.70;;
55819;SDS011;41747;45.002;39.032;2022-08-20T04:26:31;20.70;;;7.92;;
55819;SDS011;41747;45.002;39.032;2022-08-20T04:29:05;23.20;;;9.00;;
55819;SDS011;41747;45.002;39.032;2022-08-20T04:31:35;27.58;;;12.70;;
55819;SDS011;41747;45.002;39.032;2022-08-20T04:34:04;19.77;;;7.47;;
55819;SDS011;41747;45.002;39.032;2022-08-20T04:36:34;14.68;;;7.47;;
55819;SDS011;41747;45.002;39.032;2022-08-20T04:39:03;17.20;;;7.22;;
55819;SDS011;41747;45.002;39.032;2022-08-20T04:41:33;18.92;;;8.40;;
55819;SDS011;41747;45.002;39.032;2022-08-20T04:44:02;17.90;;;7.58;;
55819;SDS011;41747;45.002;39.032;2022-08-20T04:46:32;20.90;;;7.70;;
55819;SDS011;41747;45.002;39.032;2022-08-20T04:49:02;16.80;;;7.53;;
55819;SDS011;41747;45.002;39.032;2022-08-20T04:51:32;12.03;;;7.10;;
55819;SDS011;41747;45.002;39.032;2022-08-20T04:54:02;18.12;;;7.42;;
55819;SDS011;41747;45.002;39.032;2022-08-20T04:56:33;13.22;;;7.92;;
55819;SDS011;41747;45.002;39.032;2022-08-20T04:59:06;20.62;;;7.62;;
55819;SDS011;41747;45.002;39.032;2022-08-20T05:01:35;17.82;;;7.95;;
55819;SDS011;41747;45.002;39.032;2022-08-20T05:04:05;20.25;;;8.70;;
55819;SDS011;41747;45.002;39.032;2022-08-20T05:06:34;17.10;;;8.33;;
55819;SDS011;41747;45.002;39.032;2022-08-20T05:09:04;21.85;;;8.10;;
55819;SDS011;41747;45.002;39.032;2022-08-20T05:11:34;17.73;;;10.30;;
55819;SDS011;41747;45.002;39.032;2022-08-20T05:14:04;20.30;;;9.43;;
55819;SDS011;41747;45.002;39.032;2022-08-20T05:16:37;18.73;;;9.63;;
55819;SDS011;41747;45.002;39.032;2022-08-20T05:19:08;19.17;;;10.15;;
55819;SDS011;41747;45.002;39.032;2022-08-20T05:21:39;25.60;;;10.23;;
55819;SDS011;41747;45.002;39.032;2022-08-20T05:24:09;20.75;;;11.63;;
55819;SDS011;41747;45.002;39.032;2022-08-20T05:26:39;21.35;;;11.83;;
55819;SDS011;41747;45.002;39.032;2022-08-20T05:29:09;20.57;;;11.78;;
55819;SDS011;41747;45.002;39.032;2022-08-20T05:31:39;21.02;;;11.83;;
55819;SDS011;41747;45.002;39.032;2022-08-20T05:34:09;24.02;;;11.00;;
55819;SDS011;41747;45.002;39.032;2022-08-20T05:36:43;21.05;;;11.53;;
55819;SDS011;41747;45.002;39.032;2022-08-20T05:39:11;22.52;;;12.05;;
55819;SDS011;41747;45.002;39.032;2022-08-20T05:41:41;27.13;;;12.63;;
55819;SDS011;41747;45.002;39.032;2022-08-20T05:44:11;29.25;;;12.40;;
55819;SDS011;41747;45.002;39.032;2022-08-20T05:46:41;28.70;;;13.03;;
55819;SDS011;41747;45.002;39.032;2022-08-20T05:49:14;19.55;;;11.25;;
55819;SDS011;41747;45.002;39.032;2022-08-20T05:51:45;22.60;;;12.03;;
55819;SDS011;41747;45.002;39.032;2022-08-20T05:54:17;17.20;;;11.50;;
55819;SDS011;41747;45.002;39.032;2022-08-20T05:56:48;20.10;;;11.30;;
55819;SDS011;41747;45.002;39.032;2022-08-20T05:59:18;21.05;;;10.38;;
55819;SDS011;41747;45.002;39.032;2022-08-20T06:01:48;21.17;;;10.93;;
55819;SDS011;41747;45.002;39.032;2022-08-20T06:04:18;20.30;;;12.13;;
55819;SDS011;41747;45.002;39.032;2022-08-20T06:07:01;18.75;;;10.70;;
55819;SDS011;41747;45.002;39.032;2022-08-20T06:09:32;22.05;;;10.50;;
55819;SDS011;41747;45.002;39.032;2022-08-20T06:12:03;22.48;;;10.45;;
55819;SDS011;41747;45.002;39.032;2022-08-20T06:14:35;19.40;;;9.50;;
55819;SDS011;41747;45.002;39.032;2022-08-20T06:17:16;18.35;;;8.85;;
55819;SDS011;41747;45.002;39.032;2022-08-20T06:19:46;17.85;;;10.03;;
55819;SDS011;41747;45.002;39.032;2022-08-20T06:22:15;18.65;;;9.70;;
55819;SDS011;41747;45.002;39.032;2022-08-20T06:24:45;20.60;;;9.88;;
55819;SDS011;41747;45.002;39.032;2022-08-20T06:27:15;18.55;;;10.95;;
55819;SDS011;41747;45.002;39.032;2022-08-20T06:29:44;18.77;;;10.03;;
55819;SDS011;41747;45.002;39.032;2022-08-20T06:32:14;15.00;;;8.93;;
55819;SDS011;41747;45.002;39.032;2022-08-20T06:34:44;15.48;;;9.28;;
55819;SDS011;41747;45.002;39.032;2022-08-20T06:37:14;21.42;;;9.80;;
55819;SDS011;41747;45.002;39.032;2022-08-20T06:39:45;18.90;;;8.33;;
55819;SDS011;41747;45.002;39.032;2022-08-20T06:42:14;20.88;;;8.93;;
55819;SDS011;41747;45.002;39.032;2022-08-20T06:44:44;20.55;;;8.10;;
55819;SDS011;41747;45.002;39.032;2022-08-20T06:47:16;19.30;;;8.15;;
55819;SDS011;41747;45.002;39.032;2022-08-20T06:49:47;15.63;;;8.25;;
55819;SDS011;41747;45.002;39.032;2022-08-20T06:52:17;23.07;;;9.93;;
55819;SDS011;41747;45.002;39.032;2022-08-20T06:54:46;18.25;;;8.78;;
55819;SDS011;41747;45.002;39.032;2022-08-20T06:57:16;19.85;;;10.03;;
55819;SDS011;41747;45.002;39.032;2022-08-20T06:59:45;19.57;;;9.43;;
55819;SDS011;41747;45.002;39.032;2022-08-20T07:02:15;18.57;;;9.23;;
55819;SDS011;41747;45.002;39.032;2022-08-20T07:04:44;20.37;;;9.65;;
55819;SDS011;41747;45.002;39.032;2022-08-20T07:07:15;19.00;;;9.33;;
55819;SDS011;41747;45.002;39.032;2022-08-20T07:09:46;19.17;;;9.28;;
55819;SDS011;41747;45.002;39.032;2022-08-20T07:12:16;21.25;;;9.88;;
55819;SDS011;41747;45.002;39.032;2022-08-20T07:14:45;20.52;;;8.60;;
55819;SDS011;41747;45.002;39.032;2022-08-20T07:17:15;16.27;;;8.60;;
55819;SDS011;41747;45.002;39.032;2022-08-20T07:19:44;13.85;;;8.40;;
55819;SDS011;41747;45.002;39.032;2022-08-20T07:22:14;19.37;;;8.80;;
55819;SDS011;41747;45.002;39.032;2022-08-20T07:24:43;16.25;;;8.20;;
55819;SDS011;41747;45.002;39.032;2022-08-20T07:27:13;13.10;;;6.87;;
55819;SDS011;41747;45.002;39.032;2022-08-20T07:29:44;17.37;;;7.55;;
55819;SDS011;41747;45.002;39.032;2022-08-20T07:32:31;15.20;;;7.50;;
55819;SDS011;41747;45.002;39.032;2022-08-20T07:35:03;14.58;;;6.50;;
55819;SDS011;41747;45.002;39.032;2022-08-20T07:37:38;17.40;;;7.25;;
55819;SDS011;41747;45.002;39.032;2022-08-20T07:40:10;12.70;;;6.83;;
55819;SDS011;41747;45.002;39.032;2022-08-20T07:42:42;14.87;;;7.33;;
55819;SDS011;41747;45.002;39.032;2022-08-20T07:45:12;14.70;;;7.42;;
55819;SDS011;41747;45.002;39.032;2022-08-20T07:47:44;11.53;;;7.05;;
55819;SDS011;41747;45.002;39.032;2022-08-20T07:50:15;15.78;;;7.60;;
55819;SDS011;41747;45.002;39.032;2022-08-20T07:52:46;14.55;;;6.85;;
55819;SDS011;41747;45.002;39.032;2022-08-20T07:55:18;14.23;;;7.42;;
55819;SDS011;41747;45.002;39.032;2022-08-20T07:57:48;13.25;;;8.58;;
55819;SDS011;41747;45.002;39.032;2022-08-20T08:00:20;15.40;;;7.37;;
55819;SDS011;41747;45.002;39.032;2022-08-20T08:02:50;13.90;;;7.87;;
55819;SDS011;41747;45.002;39.032;2022-08-20T08:05:20;12.63;;;7.70;;
55819;SDS011;41747;45.002;39.032;2022-08-20T08:07:49;17.90;;;8.50;;
55819;SDS011;41747;45.002;39.032;2022-08-20T08:10:20;14.30;;;8.90;;
55819;SDS011;41747;45.002;39.032;2022-08-20T08:12:51;18.57;;;8.18;;
55819;SDS011;41747;45.002;39.032;2022-08-20T08:15:26;15.75;;;8.75;;
55819;SDS011;41747;45.002;39.032;2022-08-20T08:17:59;15.00;;;9.20;;
55819;SDS011;41747;45.002;39.032;2022-08-20T08:20:38;15.68;;;9.08;;
55819;SDS011;41747;45.002;39.032;2022-08-20T08:23:09;14.75;;;9.45;;
55819;SDS011;41747;45.002;39.032;2022-08-20T08:25:40;18.67;;;9.80;;
55819;SDS011;41747;45.002;39.032;2022-08-20T08:28:10;14.83;;;10.15;;
55819;SDS011;41747;45.002;39.032;2022-08-20T08:30:40;15.38;;;10.15;;
55819;SDS011;41747;45.002;39.032;2022-08-20T08:33:18;15.05;;;10.05;;
55819;SDS011;41747;45.002;39.032;2022-08-20T08:36:06;17.85;;;10.00;;
55819;SDS011;41747;45.002;39.032;2022-08-20T08:38:36;14.90;;;9.65;;
55819;SDS011;41747;45.002;39.032;2022-08-20T08:43:48;17.50;;;10.13;;
55819;SDS011;41747;45.002;39.032;2022-08-20T08:46:23;15.78;;;9.98;;
55819;SDS011;41747;45.002;39.032;2022-08-20T08:48:54;14.25;;;8.80;;
55819;SDS011;41747;45.002;39.032;2022-08-20T08:51:47;16.57;;;8.00;;
55819;SDS011;41747;45.002;39.032;2022-08-20T08:54:16;15.60;;;8.13;;
55819;SDS011;41747;45.002;39.032;2022-08-20T08:56:47;17.95;;;8.33;;
55819;SDS011;41747;45.002;39.032;2022-08-20T08:59:17;17.27;;;9.05;;
55819;SDS011;41747;45.002;39.032;2022-08-20T09:01:49;13.40;;;8.85;;
55819;SDS011;41747;45.002;39.032;2022-08-20T09:04:20;15.30;;;8.30;;
55819;SDS011;41747;45.002;39.032;2022-08-20T09:06:51;14.05;;;9.28;;
55819;SDS011;41747;45.002;39.032;2022-08-20T09:09:25;15.43;;;8.40;;
55819;SDS011;41747;45.002;39.032;2022-08-20T09:12:00;16.23;;;8.60;;
55819;SDS011;41747;45.002;39.032;2022-08-20T09:14:32;19.95;;;10.15;;
55819;SDS011;41747;45.002;39.032;2022-08-20T09:17:02;17.25;;;8.75;;
55819;SDS011;41747;45.002;39.032;2022-08-20T09:19:32;15.93;;;9.80;;
55819;SDS011;41747;45.002;39.032;2022-08-20T09:22:08;14.55;;;8.83;;
55819;SDS011;41747;45.002;39.032;2022-08-20T09:24:40;15.50;;;8.28;;
55819;SDS011;41747;45.002;39.032;2022-08-20T09:27:10;16.93;;;8.18;;
55819;SDS011;41747;45.002;39.032;2022-08-20T09:29:40;14.25;;;7.22;;
55819;SDS011;41747;45.002;39.032;2022-08-20T09:32:10;12.90;;;6.70;;
55819;SDS011;41747;45.002;39.032;2022-08-20T09:34:42;12.50;;;6.67;;
55819;SDS011;41747;45.002;39.032;2022-08-20T09:37:13;14.95;;;7.35;;
55819;SDS011;41747;45.002;39.032;2022-08-20T09:39:43;11.45;;;6.90;;
55819;SDS011;41747;45.002;39.032;2022-08-20T09:42:13;14.78;;;8.05;;
55819;SDS011;41747;45.002;39.032;2022-08-20T09:44:47;12.53;;;7.47;;
55819;SDS011;41747;45.002;39.032;2022-08-20T09:47:17;13.05;;;7.05;;
55819;SDS011;41747;45.002;39.032;2022-08-20T09:49:47;13.93;;;6.80;;
55819;SDS011;41747;45.002;39.032;2022-08-20T09:52:21;14.80;;;6.45;;
55819;SDS011;41747;45.002;39.032;2022-08-20T09:54:53;13.60;;;6.80;;
55819;SDS011;41747;45.002;39.032;2022-08-20T09:57:24;13.15;;;6.60;;
55819;SDS011;41747;45.002;39.032;2022-08-20T09:59:56;12.50;;;7.35;;
55819;SDS011;41747;45.002;39.032;2022-08-20T10:02:30;16.20;;;6.67;;
55819;SDS011;41747;45.002;39.032;2022-08-20T10:04:59;16.67;;;7.55;;
55819;SDS011;41747;45.002;39.032;2022-08-20T10:07:29;16.75;;;7.55;;
55819;SDS011;41747;45.002;39.032;2022-08-20T10:10:00;14.95;;;7.58;;
55819;SDS011;41747;45.002;39.032;2022-08-20T10:12:30;16.50;;;7.17;;
55819;SDS011;41747;45.002;39.032;2022-08-20T10:15:00;13.43;;;6.83;;
55819;SDS011;41747;45.002;39.032;2022-08-20T10:17:29;14.20;;;7.00;;
55819;SDS011;41747;45.002;39.032;2022-08-20T10:19:59;15.38;;;6.75;;
55819;SDS011;41747;45.002;39.032;2022-08-20T10:22:28;14.80;;;7.03;;
55819;SDS011;41747;45.002;39.032;2022-08-20T10:24:58;12.40;;;6.67;;
55819;SDS011;41747;45.002;39.032;2022-08-20T10:27:28;15.10;;;7.00;;
55819;SDS011;41747;45.002;39.032;2022-08-20T10:29:58;15.25;;;6.72;;
55819;SDS011;41747;45.002;39.032;2022-08-20T10:32:28;16.30;;;7.08;;
55819;SDS011;41747;45.002;39.032;2022-08-20T10:34:57;19.20;;;7.45;;
55819;SDS011;41747;45.002;39.032;2022-08-20T10:37:26;14.38;;;7.28;;
55819;SDS011;41747;45.002;39.032;2022-08-20T10:39:56;14.13;;;7.15;;
55819;SDS011;41747;45.002;39.032;2022-08-20T10:42:26;11.90;;;6.65;;
55819;SDS011;41747;45.002;39.032;2022-08-20T10:44:55;14.00;;;7.40;;
55819;SDS011;41747;45.002;39.032;2022-08-20T10:47:26;13.03;;;7.03;;
55819;SDS011;41747;45.002;39.032;2022-08-20T10:49:57;12.58;;;7.10;;
55819;SDS011;41747;45.002;39.032;2022-08-20T10:52:28;14.07;;;7.17;;
55819;SDS011;41747;45.002;39.032;2022-08-20T10:54:57;14.18;;;7.05;;
55819;SDS011;41747;45.002;39.032;2022-08-20T10:57:27;14.98;;;6.75;;
55819;SDS011;41747;45.002;39.032;2022-08-20T10:59:59;15.40;;;7.30;;
55819;SDS011;41747;45.002;39.032;2022-08-20T11:02:29;15.03;;;6.90;;
55819;SDS011;41747;45.002;39.032;2022-08-20T11:04:59;14.45;;;7.35;;
55819;SDS011;41747;45.002;39.032;2022-08-20T11:07:30;14.60;;;7.10;;
55819;SDS011;41747;45.002;39.032;2022-08-20T11:10:00;12.18;;;6.85;;
55819;SDS011;41747;45.002;39.032;2022-08-20T11:12:31;12.50;;;7.28;;
55819;SDS011;41747;45.002;39.032;2022-08-20T11:15:00;15.30;;;7.12;;
55819;SDS011;41747;45.002;39.032;2022-08-20T11:17:32;12.18;;;6.55;;
55819;SDS011;41747;45.002;39.032;2022-08-20T11:20:02;13.68;;;6.80;;
55819;SDS011;41747;45.002;39.032;2022-08-20T11:22:34;10.40;;;6.30;;
55819;SDS011;41747;45.002;39.032;2022-08-20T11:25:04;15.15;;;7.35;;
55819;SDS011;41747;45.002;39.032;2022-08-20T11:27:36;16.97;;;6.85;;
55819;SDS011;41747;45.002;39.032;2022-08-20T11:30:14;14.07;;;6.97;;
55819;SDS011;41747;45.002;39.032;2022-08-20T11:32:42;13.25;;;6.10;;
55819;SDS011;41747;45.002;39.032;2022-08-20T11:35:11;14.78;;;7.08;;
55819;SDS011;41747;45.002;39.032;2022-08-20T11:37:41;15.90;;;7.85;;
55819;SDS011;41747;45.002;39.032;2022-08-20T11:40:10;12.82;;;6.65;;
55819;SDS011;41747;45.002;39.032;2022-08-20T11:42:40;17.50;;;6.80;;
55819;SDS011;41747;45.002;39.032;2022-08-20T11:45:09;14.00;;;6.67;;
55819;SDS011;41747;45.002;39.032;2022-08-20T11:47:39;11.68;;;6.47;;
55819;SDS011;41747;45.002;39.032;2022-08-20T11:50:10;15.40;;;6.45;;
55819;SDS011;41747;45.002;39.032;2022-08-20T11:52:40;13.40;;;5.80;;
55819;SDS011;41747;45.002;39.032;2022-08-20T11:55:11;15.05;;;6.60;;
55819;SDS011;41747;45.002;39.032;2022-08-20T11:57:42;14.70;;;6.45;;
55819;SDS011;41747;45.002;39.032;2022-08-20T12:00:16;9.50;;;5.10;;
55819;SDS011;41747;45.002;39.032;2022-08-20T12:02:46;9.65;;;5.00;;
55819;SDS011;41747;45.002;39.032;2022-08-20T12:05:17;11.88;;;5.10;;
55819;SDS011;41747;45.002;39.032;2022-08-20T12:07:47;11.25;;;5.47;;
55819;SDS011;41747;45.002;39.032;2022-08-20T12:10:16;12.90;;;5.83;;
55819;SDS011;41747;45.002;39.032;2022-08-20T12:12:45;13.90;;;5.00;;
55819;SDS011;41747;45.002;39.032;2022-08-20T12:15:15;13.03;;;5.05;;
55819;SDS011;41747;45.002;39.032;2022-08-20T12:17:44;11.80;;;4.92;;
55819;SDS011;41747;45.002;39.032;2022-08-20T12:20:14;9.08;;;4.50;;
55819;SDS011;41747;45.002;39.032;2022-08-20T12:22:43;11.18;;;4.10;;
55819;SDS011;41747;45.002;39.032;2022-08-20T12:25:13;10.23;;;4.30;;
55819;SDS011;41747;45.002;39.032;2022-08-20T12:27:42;9.50;;;4.42;;
55819;SDS011;41747;45.002;39.032;2022-08-20T12:30:14;9.45;;;3.80;;
55819;SDS011;41747;45.002;39.032;2022-08-20T12:32:46;9.90;;;4.10;;
55819;SDS011;41747;45.002;39.032;2022-08-20T12:35:16;11.75;;;3.90;;
55819;SDS011;41747;45.002;39.032;2022-08-20T12:37:46;12.68;;;3.90;;
55819;SDS011;41747;45.002;39.032;2022-08-20T12:40:27;13.60;;;3.80;;
55819;SDS011;41747;45.002;39.032;2022-08-20T12:42:54;10.32;;;3.80;;
55819;SDS011;41747;45.002;39.032;2022-08-20T12:45:23;11.95;;;3.70;;
55819;SDS011;41747;45.002;39.032;2022-08-20T12:47:55;10.08;;;3.95;;
55819;SDS011;41747;45.002;39.032;2022-08-20T12:50:25;11.63;;;3.75;;
55819;SDS011;41747;45.002;39.032;2022-08-20T12:52:54;8.70;;;3.35;;
55819;SDS011;41747;45.002;39.032;2022-08-20T12:55:24;9.48;;;4.30;;
55819;SDS011;41747;45.002;39.032;2022-08-20T12:57:55;10.43;;;3.65;;
55819;SDS011;41747;45.002;39.032;2022-08-20T13:00:35;12.35;;;3.80;;
55819;SDS011;41747;45.002;39.032;2022-08-20T13:03:02;11.05;;;3.85;;
55819;SDS011;41747;45.002;39.032;2022-08-20T13:05:33;10.88;;;4.20;;
55819;SDS011;41747;45.002;39.032;2022-08-20T13:08:08;11.60;;;4.12;;
55819;SDS011;41747;45.002;39.032;2022-08-20T13:10:40;10.72;;;4.25;;
55819;SDS011;41747;45.002;39.032;2022-08-20T13:13:14;10.98;;;4.37;;
55819;SDS011;41747;45.002;39.032;2022-08-20T13:15:44;9.93;;;3.95;;
55819;SDS011;41747;45.002;39.032;2022-08-20T13:18:14;11.25;;;4.25;;
55819;SDS011;41747;45.002;39.032;2022-08-20T13:20:43;10.58;;;4.12;;
55819;SDS011;41747;45.002;39.032;2022-08-20T13:23:13;11.10;;;4.17;;
55819;SDS011;41747;45.002;39.032;2022-08-20T13:25:42;13.85;;;4.08;;
55819;SDS011;41747;45.002;39.032;2022-08-20T13:28:12;9.88;;;4.42;;
55819;SDS011;41747;45.002;39.032;2022-08-20T13:30:41;13.53;;;4.40;;
55819;SDS011;41747;45.002;39.032;2022-08-20T13:33:11;12.07;;;4.22;;
55819;SDS011;41747;45.002;39.032;2022-08-20T13:35:40;12.13;;;4.12;;
55819;SDS011;41747;45.002;39.032;2022-08-20T13:38:10;12.25;;;4.40;;
55819;SDS011;41747;45.002;39.032;2022-08-20T13:40:40;13.48;;;4.17;;
55819;SDS011;41747;45.002;39.032;2022-08-20T13:43:10;16.85;;;5.05;;
55819;SDS011;41747;45.002;39.032;2022-08-20T13:45:39;11.45;;;4.42;;
55819;SDS011;41747;45.002;39.032;2022-08-20T13:48:09;14.98;;;4.20;;
55819;SDS011;41747;45.002;39.032;2022-08-20T13:50:39;11.63;;;4.40;;
55819;SDS011;41747;45.002;39.032;2022-08-20T13:53:08;9.53;;;4.20;;
55819;SDS011;41747;45.002;39.032;2022-08-20T13:55:38;14.00;;;4.50;;
55819;SDS011;41747;45.002;39.032;2022-08-20T13:58:07;17.07;;;4.33;;
55819;SDS011;41747;45.002;39.032;2022-08-20T14:00:36;17.12;;;4.67;;
55819;SDS011;41747;45.002;39.032;2022-08-20T14:03:06;10.70;;;4.50;;
55819;SDS011;41747;45.002;39.032;2022-08-20T14:05:36;11.85;;;4.45;;
55819;SDS011;41747;45.002;39.032;2022-08-20T14:08:11;17.60;;;4.80;;
55819;SDS011;41747;45.002;39.032;2022-08-20T14:10:41;13.75;;;4.45;;
55819;SDS011;41747;45.002;39.032;2022-08-20T14:13:11;12.23;;;4.80;;
55819;SDS011;41747;45.002;39.032;2022-08-20T14:15:41;17.75;;;4.72;;
55819;SDS011;41747;45.002;39.032;2022-08-20T14:18:11;15.65;;;4.97;;
55819;SDS011;41747;45.002;39.032;2022-08-20T14:20:42;12.15;;;4.83;;
55819;SDS011;41747;45.002;39.032;2022-08-20T14:23:12;12.43;;;4.85;;
55819;SDS011;41747;45.002;39.032;2022-08-20T14:25:47;14.00;;;4.78;;
55819;SDS011;41747;45.002;39.032;2022-08-20T14:28:18;14.80;;;4.55;;
55819;SDS011;41747;45.002;39.032;2022-08-20T14:30:49;11.22;;;4.70;;
55819;SDS011;41747;45.002;39.032;2022-08-20T14:33:19;12.90;;;4.95;;
55819;SDS011;41747;45.002;39.032;2022-08-20T14:35:49;14.00;;;5.35;;
55819;SDS011;41747;45.002;39.032;2022-08-20T14:38:19;11.48;;;4.75;;
55819;SDS011;41747;45.002;39.032;2022-08-20T14:40:49;14.70;;;4.97;;
55819;SDS011;41747;45.002;39.032;2022-08-20T14:43:19;11.88;;;4.85;;
55819;SDS011;41747;45.002;39.032;2022-08-20T14:45:48;12.63;;;4.85;;
55819;SDS011;41747;45.002;39.032;2022-08-20T14:48:19;14.45;;;4.83;;
55819;SDS011;41747;45.002;39.032;2022-08-20T14:50:50;13.75;;;4.92;;